createdAt,value
2018-07-27T00:01:12.470Z,3.80
2018-07-27T00:04:08.634Z,3.83
2018-07-27T00:07:05.130Z,3.46
2018-07-27T00:10:01.550Z,2.82
2018-07-27T00:12:58.007Z,3.42
2018-07-27T00:15:55.003Z,3.81
2018-07-27T00:18:51.395Z,3.39
2018-07-27T00:21:47.471Z,3.47
2018-07-27T00:24:43.603Z,3.76
2018-07-27T00:27:40.129Z,4.06
2018-07-27T00:30:36.208Z,3.93
2018-07-27T00:33:32.590Z,4.50
2018-07-27T00:36:28.856Z,4.14
2018-07-27T00:39:25.365Z,4.68
2018-07-27T00:42:21.801Z,4.42
2018-07-27T00:45:17.962Z,4.40
2018-07-27T00:48:14.350Z,4.44
2018-07-27T00:51:10.433Z,4.13
2018-07-27T00:54:06.838Z,4.35
2018-07-27T00:57:03.102Z,4.34
2018-07-27T00:59:59.684Z,4.13
2018-07-27T01:02:56.090Z,4.36
2018-07-27T01:05:52.835Z,3.70
2018-07-27T01:08:49.420Z,3.23
2018-07-27T01:11:45.515Z,3.60
2018-07-27T01:14:42.190Z,4.62
2018-07-27T01:17:38.981Z,4.09
2018-07-27T01:20:35.733Z,3.82
2018-07-27T01:23:32.019Z,4.76
2018-07-27T01:26:28.615Z,4.68
2018-07-27T01:29:25.255Z,4.04
2018-07-27T01:32:21.634Z,4.72
2018-07-27T01:35:18.084Z,4.39
2018-07-27T01:38:14.255Z,3.51
2018-07-27T01:41:11.004Z,3.64
2018-07-27T01:44:07.505Z,3.52
2018-07-27T01:47:03.871Z,4.04
2018-07-27T01:50:00.234Z,4.12
2018-07-27T01:52:56.695Z,3.82
2018-07-27T01:55:52.788Z,3.60
2018-07-27T01:58:48.858Z,3.49
2018-07-27T02:01:45.278Z,3.75
2018-07-27T02:04:42.266Z,4.09
2018-07-27T02:07:38.468Z,3.20
2018-07-27T02:10:34.841Z,3.44
2018-07-27T02:13:31.651Z,3.32
2018-07-27T02:16:28.075Z,2.92
2018-07-27T02:19:24.139Z,3.30
2018-07-27T02:22:20.659Z,3.23
2018-07-27T02:25:18.151Z,4.53
2018-07-27T02:28:14.255Z,3.81
2018-07-27T02:31:10.804Z,3.31
2018-07-27T02:34:07.750Z,3.43
2018-07-27T02:37:04.557Z,3.43
2018-07-27T02:40:01.364Z,3.15
2018-07-27T02:42:58.111Z,3.44
2018-07-27T02:45:54.691Z,3.57
2018-07-27T02:48:51.110Z,3.70
2018-07-27T02:51:47.181Z,3.34
2018-07-27T02:54:43.936Z,4.00
2018-07-27T02:57:40.773Z,3.44
2018-07-27T03:00:37.560Z,3.53
2018-07-27T03:03:34.418Z,3.90
2018-07-27T03:06:31.098Z,3.76
2018-07-27T03:09:27.899Z,4.64
2018-07-27T03:12:24.598Z,4.86
2018-07-27T03:15:21.133Z,4.67
2018-07-27T03:18:17.663Z,4.41
2018-07-27T03:21:14.045Z,4.19
2018-07-27T03:24:10.964Z,4.20
2018-07-27T03:27:07.797Z,4.33
2018-07-27T03:30:05.085Z,5.08
2018-07-27T03:33:01.503Z,4.09
2018-07-27T03:35:57.888Z,4.12
2018-07-27T03:38:54.733Z,3.83
2018-07-27T03:41:51.596Z,4.96
2018-07-27T03:44:48.188Z,4.76
2018-07-27T03:47:44.264Z,5.04
2018-07-27T03:50:41.772Z,4.69
2018-07-27T03:53:38.316Z,4.94
2018-07-27T03:56:34.833Z,5.19
2018-07-27T03:59:31.237Z,4.59
2018-07-27T04:02:27.366Z,4.18
2018-07-27T04:05:23.357Z,4.19
2018-07-27T04:08:19.841Z,4.79
2018-07-27T04:11:16.218Z,5.49
2018-07-27T04:14:12.344Z,4.54
2018-07-27T04:17:08.851Z,4.51
2018-07-27T04:20:05.746Z,4.02
2018-07-27T04:23:02.477Z,3.51
2018-07-27T04:25:59.122Z,4.46
2018-07-27T04:28:55.907Z,4.00
2018-07-27T04:31:52.622Z,3.73
2018-07-27T04:34:49.479Z,4.60
2018-07-27T04:37:46.139Z,4.75
2018-07-27T04:40:42.828Z,4.40
2018-07-27T04:43:39.068Z,4.00
2018-07-27T04:46:35.573Z,4.21
2018-07-27T04:49:32.403Z,4.45
2018-07-27T04:52:29.320Z,4.52
2018-07-27T04:55:25.719Z,4.24
2018-07-27T04:58:22.518Z,5.25
2018-07-27T05:01:18.868Z,4.89
2018-07-27T05:04:15.456Z,5.24
2018-07-27T05:07:11.873Z,5.38
2018-07-27T05:10:13.597Z,5.55
2018-07-27T05:13:09.988Z,5.10
2018-07-27T05:16:06.396Z,4.41
2018-07-27T05:19:03.281Z,3.57
2018-07-27T05:21:59.749Z,5.32
2018-07-27T05:24:56.421Z,4.81
2018-07-27T05:27:52.841Z,5.60
2018-07-27T05:30:48.915Z,5.15
2018-07-27T05:33:47.443Z,5.30
2018-07-27T05:36:44.187Z,4.74
2018-07-27T05:39:40.584Z,5.44
2018-07-27T05:42:37.013Z,4.76
2018-07-27T05:45:33.415Z,4.99
2018-07-27T05:48:29.555Z,4.68
2018-07-27T05:51:25.866Z,4.30
2018-07-27T05:54:22.056Z,4.49
2018-07-27T05:57:18.436Z,4.89
2018-07-27T06:00:14.664Z,4.50
2018-07-27T06:03:11.073Z,4.17
2018-07-27T06:06:07.558Z,4.31
2018-07-27T06:09:04.475Z,4.25
2018-07-27T06:12:00.650Z,5.26
2018-07-27T06:14:59.763Z,4.06
2018-07-27T06:17:56.090Z,3.83
2018-07-27T06:20:52.146Z,4.13
2018-07-27T06:23:48.425Z,3.96
2018-07-27T06:26:44.480Z,3.93
2018-07-27T06:29:41.191Z,3.86
2018-07-27T06:32:37.759Z,3.77
2018-07-27T06:35:34.051Z,3.48
2018-07-27T06:38:30.131Z,3.22
2018-07-27T06:41:26.216Z,3.66
2018-07-27T06:44:23.031Z,3.32
2018-07-27T06:47:19.134Z,3.34
2018-07-27T06:50:16.022Z,3.29
2018-07-27T06:53:12.421Z,3.51
2018-07-27T06:56:08.492Z,3.33
2018-07-27T06:59:05.193Z,3.34
2018-07-27T07:02:01.344Z,3.30
2018-07-27T07:04:58.093Z,3.25
2018-07-27T07:07:54.651Z,3.19
2018-07-27T07:10:50.842Z,3.20
2018-07-27T07:13:47.504Z,3.42
2018-07-27T07:16:43.983Z,3.20
2018-07-27T07:19:40.094Z,3.20
2018-07-27T07:22:36.824Z,3.39
2018-07-27T07:25:33.119Z,3.31
2018-07-27T07:28:29.132Z,3.43
2018-07-27T07:31:25.903Z,3.10
2018-07-27T07:34:22.678Z,3.17
2018-07-27T07:37:19.303Z,3.00
2018-07-27T07:40:16.101Z,3.04
2018-07-27T07:43:12.520Z,2.90
2018-07-27T07:46:09.539Z,2.84
2018-07-27T07:49:06.697Z,2.77
2018-07-27T07:52:03.490Z,3.39
2018-07-27T07:54:59.587Z,3.59
2018-07-27T07:57:56.494Z,3.33
2018-07-27T08:00:52.863Z,2.98
2018-07-27T08:03:49.243Z,3.30
2018-07-27T08:06:45.978Z,3.26
2018-07-27T08:09:42.374Z,3.03
2018-07-27T08:12:38.773Z,3.02
2018-07-27T08:15:34.871Z,3.24
2018-07-27T08:18:31.328Z,3.17
2018-07-27T08:21:28.432Z,2.56
2018-07-27T08:24:25.344Z,2.94
2018-07-27T08:27:21.739Z,2.61
2018-07-27T08:30:18.140Z,2.54
2018-07-27T08:33:14.244Z,2.44
2018-07-27T08:36:10.729Z,2.83
2018-07-27T08:39:08.988Z,2.81
2018-07-27T08:42:05.833Z,2.80
2018-07-27T08:45:02.670Z,3.00
2018-07-27T08:47:59.058Z,2.95
2018-07-27T08:50:55.429Z,3.04
2018-07-27T08:53:51.536Z,2.60
2018-07-27T08:56:47.929Z,2.57
2018-07-27T08:59:44.097Z,2.87
2018-07-27T09:02:40.469Z,2.77
2018-07-27T09:05:36.555Z,2.60
2018-07-27T09:08:32.956Z,2.47
2018-07-27T09:11:29.363Z,2.85
2018-07-27T09:14:25.453Z,2.55
2018-07-27T09:17:21.851Z,2.61
2018-07-27T09:20:18.241Z,2.54
2018-07-27T09:23:14.318Z,2.60
2018-07-27T09:26:10.761Z,2.33
2018-07-27T09:29:06.830Z,2.78
2018-07-27T09:32:02.960Z,2.82
2018-07-27T09:34:59.245Z,2.70
2018-07-27T09:37:55.314Z,2.95
2018-07-27T09:40:51.722Z,2.70
2018-07-27T09:43:47.802Z,2.65
2018-07-27T09:46:44.184Z,2.70
2018-07-27T09:49:41.045Z,2.90
2018-07-27T09:52:37.784Z,2.98
2018-07-27T09:55:34.465Z,3.05
2018-07-27T09:58:30.832Z,2.89
2018-07-27T10:01:28.510Z,2.50
2018-07-27T10:04:25.644Z,2.88
2018-07-27T10:07:21.748Z,2.77
2018-07-27T10:10:18.524Z,2.54
2018-07-27T10:13:14.616Z,2.70
2018-07-27T10:16:11.015Z,2.86
2018-07-27T10:19:07.087Z,2.98
2018-07-27T10:22:03.905Z,2.63
2018-07-27T10:25:00.307Z,2.51
2018-07-27T10:27:56.402Z,2.80
2018-07-27T10:30:53.227Z,2.36
2018-07-27T10:33:49.617Z,2.36
2018-07-27T10:36:45.698Z,2.76
2018-07-27T10:39:44.777Z,2.44
2018-07-27T10:42:40.873Z,2.51
2018-07-27T10:45:37.627Z,2.36
2018-07-27T10:48:34.090Z,2.41
2018-07-27T10:51:30.155Z,2.46
2018-07-27T10:54:26.868Z,2.70
2018-07-27T10:57:23.271Z,2.50
2018-07-27T11:00:20.102Z,2.30
2018-07-27T11:03:16.551Z,2.56
2018-07-27T11:06:12.710Z,2.51
2018-07-27T11:09:10.165Z,2.30
2018-07-27T11:12:06.541Z,2.47
2018-07-27T11:15:02.622Z,2.39
2018-07-27T11:17:59.395Z,2.60
2018-07-27T11:20:55.785Z,2.84
2018-07-27T11:23:51.870Z,2.56
2018-07-27T11:26:48.594Z,2.50
2018-07-27T11:29:44.978Z,2.41
2018-07-27T11:32:41.064Z,2.20
2018-07-27T11:35:37.761Z,2.33
2018-07-27T11:38:34.157Z,2.42
2018-07-27T11:41:30.890Z,2.45
2018-07-27T11:44:27.279Z,2.30
2018-07-27T11:47:23.382Z,2.36
2018-07-27T11:50:20.155Z,2.52
2018-07-27T11:53:16.170Z,2.34
2018-07-27T11:56:12.235Z,2.73
2018-07-27T11:59:08.422Z,2.49
2018-07-27T12:02:04.572Z,2.62
2018-07-27T12:05:01.396Z,2.49
2018-07-27T12:07:57.802Z,2.85
2018-07-27T12:10:54.482Z,2.81
2018-07-27T12:13:50.931Z,2.63
2018-07-27T12:16:47.650Z,2.92
2018-07-27T12:19:44.031Z,3.03
2018-07-27T12:22:40.859Z,2.80
2018-07-27T12:25:36.955Z,3.37
2018-07-27T12:28:33.038Z,3.15
2018-07-27T12:31:29.130Z,3.26
2018-07-27T12:34:25.984Z,3.50
2018-07-27T12:37:22.249Z,3.21
2018-07-27T12:40:18.823Z,3.26
2018-07-27T12:43:15.269Z,3.04
2018-07-27T12:46:11.973Z,3.11
2018-07-27T12:49:08.804Z,3.50
2018-07-27T12:52:04.883Z,3.43
2018-07-27T12:55:01.626Z,3.35
2018-07-27T12:57:58.021Z,3.18
2018-07-27T13:00:54.729Z,3.12
2018-07-27T13:03:50.862Z,3.24
2018-07-27T13:06:47.648Z,3.40
2018-07-27T13:09:44.019Z,3.73
2018-07-27T13:12:40.544Z,3.30
2018-07-27T13:15:36.916Z,3.56
2018-07-27T13:18:32.995Z,3.97
2018-07-27T13:21:29.696Z,3.70
2018-07-27T13:27:22.555Z,3.96
2018-07-27T13:30:18.933Z,3.42
2018-07-27T13:33:15.757Z,4.00
2018-07-27T13:36:12.126Z,3.80
2018-07-27T13:39:09.042Z,3.27
2018-07-27T13:42:06.300Z,3.86
2018-07-27T13:45:03.018Z,4.12
2018-07-27T13:47:59.128Z,4.36
2018-07-27T13:50:55.999Z,3.82
2018-07-27T13:53:52.081Z,3.99
2018-07-27T13:56:49.108Z,4.04
2018-07-27T13:59:46.059Z,4.09
2018-07-27T14:02:42.143Z,3.64
2018-07-27T14:05:38.772Z,3.99
2018-07-27T14:08:34.862Z,3.71
2018-07-27T14:11:31.560Z,4.13
2018-07-27T14:14:27.603Z,4.19
2018-07-27T14:17:25.744Z,4.26
2018-07-27T14:20:21.888Z,3.58
2018-07-27T14:23:18.663Z,3.62
2018-07-27T14:26:15.009Z,4.12
2018-07-27T14:29:11.728Z,4.01
2018-07-27T14:32:08.217Z,3.90
2018-07-27T14:35:05.494Z,4.18
2018-07-27T14:38:01.868Z,4.07
2018-07-27T14:40:57.948Z,3.97
2018-07-27T14:43:54.659Z,4.20
2018-07-27T14:46:51.030Z,4.28
2018-07-27T14:49:47.089Z,4.17
2018-07-27T14:52:43.297Z,3.71
2018-07-27T14:55:40.046Z,3.80
2018-07-27T14:58:35.864Z,4.00
2018-07-27T15:01:32.201Z,3.63
2018-07-27T15:04:28.662Z,3.92
2018-07-27T15:07:25.349Z,3.73
2018-07-27T15:10:22.178Z,4.13
2018-07-27T15:13:18.295Z,4.07
2018-07-27T15:16:15.038Z,3.93
2018-07-27T15:19:11.384Z,4.10
2018-07-27T15:22:07.466Z,4.03
2018-07-27T15:25:04.118Z,3.98
2018-07-27T15:28:00.176Z,3.98
2018-07-27T15:30:56.959Z,4.06
2018-07-27T15:33:53.359Z,3.80
2018-07-27T15:36:49.532Z,4.21
2018-07-27T15:39:46.291Z,4.11
2018-07-27T15:42:43.081Z,3.83
2018-07-27T15:45:39.208Z,3.86
2018-07-27T15:48:36.058Z,3.95
2018-07-27T15:51:32.863Z,3.92
2018-07-27T15:54:29.289Z,3.91
2018-07-27T15:57:26.106Z,3.70
2018-07-27T16:00:22.887Z,3.80
2018-07-27T16:03:21.826Z,3.96
2018-07-27T16:06:17.915Z,4.13
2018-07-27T16:09:14.025Z,4.00
2018-07-27T16:12:10.494Z,4.12
2018-07-27T16:15:06.570Z,3.88
2018-07-27T16:18:02.637Z,3.71
2018-07-27T16:20:59.053Z,3.93
2018-07-27T16:23:55.229Z,4.03
2018-07-27T16:26:51.311Z,4.09
2018-07-27T16:29:47.940Z,3.90
2018-07-27T16:32:44.556Z,3.56
2018-07-27T16:35:41.033Z,3.84
2018-07-27T16:38:37.107Z,3.99
2018-07-27T16:41:33.224Z,4.26
2018-07-27T16:44:30.331Z,3.85
2018-07-27T16:47:26.789Z,3.97
2018-07-27T16:50:24.216Z,3.80
2018-07-27T16:53:20.306Z,3.61
2018-07-27T16:56:16.399Z,4.14
2018-07-27T16:59:13.167Z,4.00
2018-07-27T17:02:10.022Z,3.94
2018-07-27T17:05:07.122Z,4.28
2018-07-27T17:08:03.228Z,4.12
2018-07-27T17:10:59.978Z,3.93
2018-07-27T17:13:56.787Z,3.85
2018-07-27T17:16:53.189Z,3.94
2018-07-27T17:19:49.255Z,4.31
2018-07-27T17:22:46.054Z,4.11
2018-07-27T17:25:42.982Z,4.45
2018-07-27T17:28:39.226Z,3.95
2018-07-27T17:31:35.316Z,4.55
2018-07-27T17:34:31.983Z,4.33
2018-07-27T17:37:28.834Z,4.57
2018-07-27T17:40:24.903Z,4.75
2018-07-27T17:43:21.440Z,4.31
2018-07-27T17:46:17.861Z,4.49
2018-07-27T17:49:13.941Z,4.80
2018-07-27T17:52:10.788Z,4.22
2018-07-27T17:55:06.958Z,4.28
2018-07-27T17:58:03.699Z,4.67
2018-07-27T18:00:59.767Z,3.95
2018-07-27T18:03:56.657Z,4.59
2018-07-27T18:06:52.779Z,4.08
2018-07-27T18:09:49.564Z,4.37
2018-07-27T18:12:45.972Z,4.26
2018-07-27T18:15:42.653Z,4.28
2018-07-27T18:18:39.407Z,3.96
2018-07-27T18:21:35.790Z,4.65
2018-07-27T18:24:32.538Z,4.02
2018-07-27T18:28:08.195Z,4.11
2018-07-27T18:31:04.614Z,4.38
2018-07-27T18:34:01.377Z,4.26
2018-07-27T18:36:58.137Z,4.23
2018-07-27T18:39:54.820Z,4.61
2018-07-27T18:42:51.949Z,4.58
2018-07-27T18:45:48.615Z,4.53
2018-07-27T18:48:45.433Z,4.52
2018-07-27T18:51:41.539Z,4.45
2018-07-27T18:54:37.751Z,4.36
2018-07-27T18:57:34.233Z,4.12
2018-07-27T19:00:30.305Z,4.44
2018-07-27T19:03:26.562Z,4.21
2018-07-27T19:06:23.228Z,4.28
2018-07-27T19:09:20.049Z,3.89
2018-07-27T19:12:16.919Z,4.14
2018-07-27T19:15:13.000Z,4.59
2018-07-27T19:18:09.700Z,4.49
2018-07-27T19:21:05.890Z,4.56
2018-07-27T19:24:02.430Z,4.56
2018-07-27T19:26:59.113Z,4.09
2018-07-27T19:29:55.190Z,5.49
2018-07-27T19:32:51.879Z,5.67
2018-07-27T19:35:48.066Z,5.47
2018-07-27T19:38:44.800Z,5.59
2018-07-27T19:41:42.554Z,4.89
2018-07-27T19:44:39.272Z,5.35
2018-07-27T19:47:35.344Z,5.57
2018-07-27T19:50:31.401Z,5.47
2018-07-27T19:53:27.927Z,5.61
2018-07-27T19:56:24.200Z,5.66
2018-07-27T19:59:21.023Z,5.59
2018-07-27T20:02:17.850Z,4.62
2018-07-27T20:05:14.575Z,4.89
2018-07-27T20:08:11.303Z,4.97
2018-07-27T20:11:07.667Z,4.37
2018-07-27T20:14:03.754Z,5.11
2018-07-27T20:17:00.267Z,4.22
2018-07-27T20:19:56.328Z,4.45
2018-07-27T20:22:53.069Z,4.05
2018-07-27T20:25:49.930Z,4.31
2018-07-27T20:28:46.007Z,4.23
2018-07-27T20:31:42.086Z,4.58
2018-07-27T20:34:38.798Z,4.48
2018-07-27T20:37:35.883Z,4.15
2018-07-27T20:40:32.539Z,4.81
2018-07-27T20:43:29.606Z,4.67
2018-07-27T20:46:26.264Z,4.73
2018-07-27T20:49:23.056Z,4.54
2018-07-27T20:52:19.127Z,4.45
2018-07-27T20:55:15.280Z,4.80
2018-07-27T20:58:12.213Z,4.66
2018-07-27T21:01:08.705Z,4.44
2018-07-27T21:04:05.326Z,4.26
2018-07-27T21:07:01.661Z,4.11
2018-07-27T21:09:57.738Z,4.61
2018-07-27T21:12:54.376Z,4.54
2018-07-27T21:15:51.112Z,4.41
2018-07-27T21:18:46.926Z,4.45
2018-07-27T21:21:42.974Z,4.66
2018-07-27T21:24:39.715Z,4.28
2018-07-27T21:27:36.115Z,4.37
2018-07-27T21:30:32.502Z,4.40
2018-07-27T21:33:28.639Z,4.14
2018-07-27T21:36:25.083Z,4.28
2018-07-27T21:39:21.903Z,3.98
2018-07-27T21:42:17.964Z,3.85
2018-07-27T21:45:14.198Z,4.21
2018-07-27T21:48:10.407Z,3.79
2018-07-27T21:51:06.747Z,4.22
2018-07-27T21:54:03.515Z,4.44
2018-07-27T21:57:00.304Z,4.29
2018-07-27T21:59:57.282Z,3.79
2018-07-27T22:02:54.017Z,4.15
2018-07-27T22:05:50.682Z,3.57
2018-07-27T22:08:47.556Z,6.04
2018-07-27T22:11:43.764Z,4.81
2018-07-27T22:14:41.420Z,4.28
2018-07-27T22:17:38.191Z,4.22
2018-07-27T22:20:35.109Z,3.76
2018-07-27T22:23:31.558Z,4.44
2018-07-27T22:26:27.715Z,4.09
2018-07-27T22:29:24.248Z,4.27
2018-07-27T22:32:20.963Z,3.64
2018-07-27T22:35:17.590Z,4.09
2018-07-27T22:38:13.729Z,3.97
2018-07-27T22:41:10.220Z,3.97
2018-07-27T22:44:07.349Z,3.70
2018-07-27T22:47:03.756Z,3.79
2018-07-27T22:50:00.343Z,3.77
2018-07-27T22:52:56.729Z,3.58
2018-07-27T22:55:52.804Z,4.37
2018-07-27T22:58:49.258Z,4.40
2018-07-27T23:01:46.087Z,4.23
2018-07-27T23:04:43.007Z,4.95
2018-07-27T23:07:39.516Z,3.59
2018-07-27T23:10:35.615Z,3.32
2018-07-27T23:13:32.123Z,4.30
2018-07-27T23:16:28.284Z,3.89
2018-07-27T23:19:24.665Z,4.00
2018-07-27T23:22:20.749Z,4.08
2018-07-27T23:25:17.412Z,4.32
2018-07-27T23:28:13.563Z,4.37
2018-07-27T23:31:09.999Z,3.57
2018-07-27T23:34:06.541Z,3.66
2018-07-27T23:37:02.618Z,4.03
2018-07-27T23:39:59.036Z,3.37
2018-07-27T23:42:55.850Z,4.62
2018-07-27T23:45:52.673Z,4.56
2018-07-27T23:48:49.423Z,4.23
2018-07-27T23:51:46.272Z,5.34
2018-07-27T23:54:43.090Z,4.39
2018-07-27T23:57:39.251Z,4.54
